createdAt,value
2023-03-21T00:06:28.141Z,101395.16
2023-03-21T00:11:51.452Z,101397.00
2023-03-21T00:17:00.555Z,101397.00
2023-03-21T00:28:05.223Z,101383.13
2023-03-21T00:33:22.348Z,101374.38
2023-03-21T00:38:27.341Z,101381.28
2023-03-21T00:43:30.307Z,101370.16
2023-03-21T00:48:32.243Z,101355.31
2023-03-21T00:53:33.791Z,101363.19
2023-03-21T00:58:35.329Z,101345.06
2023-03-21T01:03:42.809Z,101345.84
2023-03-21T01:08:52.550Z,101337.25
2023-03-21T01:14:07.385Z,101332.22
2023-03-21T01:19:25.414Z,101333.75
2023-03-21T01:24:31.284Z,101331.09
2023-03-21T01:29:36.990Z,101332.88
2023-03-21T01:34:42.238Z,101321.69
2023-03-21T01:39:45.998Z,101324.34
2023-03-21T01:45:05.072Z,101320.06
2023-03-21T01:50:36.717Z,101311.31
2023-03-21T01:56:33.762Z,101304.22
2023-03-21T02:01:49.059Z,101307.88
2023-03-21T02:07:16.077Z,101307.94
2023-03-21T02:12:31.677Z,101295.81
2023-03-21T02:18:03.201Z,101293.16
2023-03-21T02:23:58.628Z,101291.53
2023-03-21T02:29:19.338Z,101276.00
2023-03-21T02:35:00.799Z,101275.19
2023-03-21T02:40:29.248Z,101269.00
2023-03-21T02:45:53.307Z,101271.81
2023-03-21T02:51:03.963Z,101265.66
2023-03-21T02:56:10.674Z,101267.38
2023-03-21T03:01:20.064Z,101271.81
2023-03-21T03:06:34.349Z,101271.03
2023-03-21T03:11:47.216Z,101268.53
2023-03-21T03:17:24.091Z,101266.03
2023-03-21T03:22:39.449Z,101249.59
2023-03-21T03:27:47.449Z,101259.06
2023-03-21T03:32:56.768Z,101258.34
2023-03-21T03:38:05.090Z,101259.19
2023-03-21T03:43:22.973Z,101242.69
2023-03-21T03:48:54.014Z,101241.88
2023-03-21T03:54:14.454Z,101241.22
2023-03-21T03:59:29.719Z,101255.06
2023-03-21T04:04:49.948Z,101249.09
2023-03-21T04:09:54.907Z,101244.81
2023-03-21T04:20:30.275Z,101236.22
2023-03-21T04:25:55.799Z,101235.50
2023-03-21T04:31:25.968Z,101232.97
2023-03-21T04:36:46.815Z,101235.56
2023-03-21T04:41:52.981Z,101224.41
2023-03-21T04:46:55.630Z,101228.66
2023-03-21T04:51:57.661Z,101223.44
2023-03-21T04:57:17.796Z,101222.69
2023-03-21T05:02:27.093Z,101214.00
2023-03-21T05:07:38.489Z,101211.25
2023-03-21T05:12:44.247Z,101209.59
2023-03-21T05:17:56.998Z,101211.38
2023-03-21T05:23:06.231Z,101208.78
2023-03-21T05:28:27.884Z,101207.91
2023-03-21T05:33:33.061Z,101209.59
2023-03-21T05:39:07.205Z,101207.91
2023-03-21T05:44:25.280Z,101202.81
2023-03-21T05:49:44.424Z,101205.47
2023-03-21T05:54:52.037Z,101193.34
2023-03-21T06:00:14.289Z,101189.06
2023-03-21T06:05:48.059Z,101191.72
2023-03-21T06:16:46.500Z,101189.34
2023-03-21T06:22:53.849Z,101188.53
2023-03-21T06:34:09.712Z,101196.47
2023-03-21T06:39:28.779Z,101189.47
2023-03-21T06:44:42.906Z,101198.28
2023-03-21T06:49:53.298Z,101198.28
2023-03-21T06:55:15.867Z,101193.81
2023-03-21T07:00:30.446Z,101194.78
2023-03-21T07:05:51.338Z,101198.44
2023-03-21T07:16:39.862Z,101193.44
2023-03-21T07:22:08.346Z,101188.41
2023-03-21T07:27:41.033Z,101194.50
2023-03-21T07:32:45.625Z,101190.31
2023-03-21T07:37:47.197Z,101189.44
2023-03-21T07:42:51.177Z,101197.28
2023-03-21T07:48:04.052Z,101185.91
2023-03-21T07:53:08.970Z,101191.28
2023-03-21T07:58:10.614Z,101185.38
2023-03-21T08:03:13.169Z,101197.69
2023-03-21T08:08:15.221Z,101194.22
2023-03-21T08:13:16.815Z,101196.97
2023-03-21T08:18:18.530Z,101187.47
2023-03-21T08:23:21.676Z,101184.97
2023-03-21T08:28:30.427Z,101184.34
2023-03-21T08:33:32.680Z,101189.69
2023-03-21T08:45:45.039Z,101187.00
2023-03-21T08:50:52.295Z,101181.81
2023-03-21T08:56:05.349Z,101180.03
2023-03-21T09:07:11.271Z,101187.03
2023-03-21T09:13:35.764Z,101184.44
2023-03-21T09:18:50.641Z,101182.09
2023-03-21T09:23:55.440Z,101177.97
2023-03-21T09:28:58.926Z,101180.81
2023-03-21T09:34:04.527Z,101173.03
2023-03-21T09:39:06.264Z,101168.84
2023-03-21T09:44:45.030Z,101183.75
2023-03-21T09:49:54.570Z,101178.66
2023-03-21T09:54:57.135Z,101173.25
2023-03-21T10:00:08.755Z,101176.78
2023-03-21T10:05:30.165Z,101167.25
2023-03-21T10:10:38.054Z,101166.47
2023-03-21T10:15:40.019Z,101168.38
2023-03-21T10:20:42.857Z,101167.56
2023-03-21T10:25:49.096Z,101168.28
2023-03-21T10:30:52.700Z,101165.06
2023-03-21T10:36:02.181Z,101165.91
2023-03-21T10:41:03.778Z,101154.00
2023-03-21T10:46:12.386Z,101141.34
2023-03-21T10:51:21.524Z,101138.25
2023-03-21T10:56:27.620Z,101137.69
2023-03-21T11:01:39.227Z,101135.03
2023-03-21T11:06:43.037Z,101133.22
2023-03-21T11:11:56.463Z,101128.19
2023-03-21T11:16:58.076Z,101131.78
2023-03-21T11:22:06.158Z,101119.94
2023-03-21T11:27:08.970Z,101116.56
2023-03-21T11:32:35.102Z,101113.81
2023-03-21T11:37:36.625Z,101117.47
2023-03-21T11:42:54.789Z,101105.06
2023-03-21T11:48:01.279Z,101101.97
2023-03-21T11:53:26.650Z,101099.41
2023-03-21T11:58:52.061Z,101094.84
2023-03-21T12:04:29.318Z,101089.47
2023-03-21T12:09:44.948Z,101084.44
2023-03-21T12:15:21.131Z,101076.59
2023-03-21T12:20:54.341Z,101080.78
2023-03-21T12:26:11.194Z,101069.22
2023-03-21T12:31:38.178Z,101067.28
2023-03-21T12:37:01.884Z,101068.13
2023-03-21T12:42:20.658Z,101051.63
2023-03-21T12:47:29.876Z,101049.06
2023-03-21T12:52:37.012Z,101054.25
2023-03-21T12:57:57.574Z,101042.28
2023-03-21T13:03:02.795Z,101039.72
2023-03-21T13:08:13.565Z,101029.97
2023-03-21T13:13:21.133Z,101026.25
2023-03-21T13:18:43.664Z,101021.75
2023-03-21T13:24:23.763Z,101018.50
2023-03-21T13:29:44.162Z,100995.03
2023-03-21T13:34:46.441Z,100991.78
2023-03-21T13:39:49.767Z,100988.66
2023-03-21T13:44:58.135Z,100996.63
2023-03-21T13:50:18.227Z,100987.94
2023-03-21T13:55:24.722Z,100977.22
2023-03-21T14:31:19.136Z,100933.75
2023-03-21T14:49:44.828Z,100926.63
2023-03-21T14:55:36.063Z,100919.88
2023-03-21T15:07:40.337Z,100904.97
2023-03-21T15:37:06.155Z,100881.63
2023-03-21T15:48:13.979Z,100873.00
2023-03-21T16:12:03.647Z,100849.56
2023-03-21T16:17:40.356Z,100842.59
2023-03-21T16:22:48.757Z,100843.50
2023-03-21T16:27:56.593Z,100844.41
2023-03-21T16:33:28.421Z,100853.09
2023-03-21T16:38:32.790Z,100852.34
2023-03-21T16:43:34.519Z,100850.72
2023-03-21T16:48:36.366Z,100844.66
2023-03-21T16:53:38.040Z,100851.53
2023-03-21T16:58:39.725Z,100842.78
2023-03-21T17:03:45.449Z,100840.00
2023-03-21T17:08:50.854Z,100833.03
2023-03-21T17:13:54.884Z,100830.34
2023-03-21T17:18:56.518Z,100841.69
2023-03-21T17:24:09.765Z,100842.56
2023-03-21T17:29:39.103Z,100836.44
2023-03-21T17:35:12.843Z,100828.50
2023-03-21T17:41:16.053Z,100828.31
2023-03-21T17:47:21.013Z,100837.81
2023-03-21T17:53:26.024Z,100842.13
2023-03-21T17:59:15.919Z,100837.75
2023-03-21T18:05:16.101Z,100841.28
2023-03-21T18:10:54.870Z,100843.94
2023-03-21T18:16:37.153Z,100840.50
2023-03-21T18:22:11.968Z,100841.28
2023-03-21T18:27:14.402Z,100849.06
2023-03-21T18:32:16.021Z,100849.13
2023-03-21T18:37:18.367Z,100856.09
2023-03-21T18:42:22.072Z,100859.50
2023-03-21T18:47:25.140Z,100863.06
2023-03-21T18:52:27.155Z,100867.44
2023-03-21T18:57:38.176Z,100862.28
2023-03-21T19:02:46.251Z,100868.38
2023-03-21T19:07:50.401Z,100870.19
2023-03-21T19:12:53.343Z,100880.72
2023-03-21T19:23:18.525Z,100861.25
2023-03-21T19:28:20.331Z,100850.69
2023-03-21T19:33:22.715Z,100852.28
2023-03-21T19:38:24.353Z,100849.47
2023-03-21T19:43:32.744Z,100838.94
2023-03-21T19:48:34.949Z,100841.47
2023-03-21T19:53:40.334Z,100845.81
2023-03-21T19:58:42.286Z,100839.66
2023-03-21T20:03:47.211Z,100836.03
2023-03-21T20:14:10.684Z,100838.59
2023-03-21T20:19:13.332Z,100836.00
2023-03-21T20:24:16.368Z,100828.81
2023-03-21T20:34:40.335Z,100838.28
2023-03-21T20:39:42.652Z,100819.03
2023-03-21T20:44:57.776Z,100833.72
2023-03-21T20:49:59.815Z,100831.06
2023-03-21T20:55:01.561Z,100827.47
2023-03-21T21:00:13.244Z,100830.06
2023-03-21T21:05:25.810Z,100810.88
2023-03-21T21:10:33.513Z,100816.13
2023-03-21T21:15:37.345Z,100804.88
2023-03-21T21:20:39.364Z,100794.38
2023-03-21T21:25:41.123Z,100803.91
2023-03-21T21:30:42.774Z,100805.63
2023-03-21T21:35:47.937Z,100804.81
2023-03-21T21:40:51.746Z,100800.41
2023-03-21T21:45:53.996Z,100800.38
2023-03-21T21:50:55.904Z,100789.94
2023-03-21T21:55:57.409Z,100774.19
2023-03-21T22:01:01.222Z,100785.22
2023-03-21T22:06:04.484Z,100786.75
2023-03-21T22:11:06.687Z,100785.84
2023-03-21T22:16:08.575Z,100782.44
2023-03-21T22:21:10.434Z,100784.28
2023-03-21T22:26:12.036Z,100781.84
2023-03-21T22:31:16.579Z,100781.88
2023-03-21T22:36:18.197Z,100765.22
2023-03-21T22:41:19.867Z,100763.50
2023-03-21T22:46:21.568Z,100764.13
2023-03-21T22:51:23.134Z,100755.19
2023-03-21T22:56:24.757Z,100748.88
2023-03-21T23:01:26.462Z,100742.50
2023-03-21T23:06:28.085Z,100744.81
2023-03-21T23:11:29.717Z,100746.19
2023-03-21T23:16:31.829Z,100752.03
2023-03-21T23:21:35.108Z,100746.78
2023-03-21T23:26:36.838Z,100751.09
2023-03-21T23:31:38.432Z,100741.50
2023-03-21T23:36:40.698Z,100735.38
2023-03-21T23:41:45.061Z,100727.44
2023-03-21T23:46:46.661Z,100728.19
2023-03-21T23:51:48.200Z,100718.47
2023-03-21T23:56:49.812Z,100706.09
